Wednesday, June 20, 2018, 7:47 AM GMT
Back to Local

CWIG, Ile Aux Grues, Que.

Location: , , Canada Lat: 47.067
Local Time: 7:47 AM GMT ( 7:47 GMT) Lon: -70.533
Time Zone: GMT Elev: 59 ft

Show me the last for .
Show Coded

Time T Td Feel RH Dir Speed Gust Alt SLP Vis Weather Sky Remarks
2018-06-20 07:00 - - - 0 210° 13 - - - 0 Peak wind: 19 mph (17 kts) from 180° at 00 min
2018-06-20 06:00 - - - 0 200° 14 20 - - 0 Peak wind: 19 mph (17 kts) from 180° at 00 min
2018-06-20 05:00 - - - 0 200° 13 - - - 0 None
2018-06-20 04:00 - - - 0 210° 12 - - - 0 None
2018-06-20 03:00 - - - 0 230° 6 - - - 0 None
2018-06-20 02:00 - - - 0 270° 2 - - - 0 None
2018-06-20 01:00 - - - 0 310° 6 - - - 0 None
2018-06-20 00:00 - - - 0 300° 2 - - - 0 None
2018-06-19 23:00 - - - 0 330° 3 - - - 0 None
2018-06-19 22:00 - - - 0 340° 8 - - - 0 None
2018-06-19 21:00 - - - 0 50° 10 - - - 0 None
2018-06-19 20:00 - - - 0 360° 7 - - - 0 None
2018-06-19 19:00 - - - 0 320° 10 - - - 0 Peak wind: 19 mph (17 kts) from 310° at 21 min
2018-06-19 18:00 - - - 0 300° 9 - - - 0 None
2018-06-19 16:00 - - - 0 310° 8 - - - 0 None
2018-06-19 15:00 - - - 0 290° 8 - - - 0 None
2018-06-19 14:00 - - - 0 240° 14 - - - 0 None
2018-06-19 13:00 - - - 0 260° 10 - - - 0 None
2018-06-19 12:00 - - - 0 310° 10 - - - 0 Peak wind: 26 mph (23 kts) from 340° at 12 min
2018-06-19 11:00 - - - 0 310° 17 - - - 0 Peak wind: 24 mph (21 kts) from 310° at 49 min
2018-06-19 10:00 - - - 0 340° 8 - - - 0 None
2018-06-19 09:00 - - - 0 340° 12 21 - - 0 Peak wind: 21 mph (19 kts) from 300° at 18 min
2018-06-19 08:00 - - - 0 350° 12 - - - 0 Peak wind: 33 mph (29 kts) from 320° at 29 min

Support USWX by starting your Amazon purchase here.